Time;durP1;ratioP1;P1;durP2;ratioP2;P2;SDS_P1;SDS_P2;PMS_P1;PMS_P2;Temp;Humidity;BMP_temperature;BMP_pressure;BME280_temperature;BME280_humidity;BME280_pressure;Samples;Min_cycle;Max_cycle;Signal;HPM_P1;HPM_P2
2022/03/04 00:01:57;;;;;;;53.13;38.77;;;4.70;99.50;;;;;;5052011;28;20947;-74
2022/03/04 00:04:24;;;;;;;39.37;27.13;;;4.50;99.90;;;;;;5051921;28;20454;-73
2022/03/04 00:06:51;;;;;;;41.20;29.33;;;4.00;99.90;;;;;;5051807;28;20478;-73
2022/03/04 00:09:20;;;;;;;31.70;23.37;;;3.90;99.90;;;;;;5051976;28;20461;-74
2022/03/04 00:11:49;;;;;;;40.57;24.70;;;4.20;99.90;;;;;;5052288;28;20493;-74
2022/03/04 00:14:16;;;;;;;50.10;30.17;;;4.20;99.90;;;;;;5051975;28;20454;-73
2022/03/04 00:16:43;;;;;;;36.00;26.50;;;4.20;99.90;;;;;;5051695;28;20485;-73
2022/03/04 00:19:10;;;;;;;61.73;38.13;;;4.30;99.90;;;;;;5051605;28;20460;-74
2022/03/04 00:21:39;;;;;;;40.33;27.83;;;4.00;99.90;;;;;;5051568;28;20482;-73
2022/03/04 00:24:07;;;;;;;47.93;27.80;;;4.10;99.90;;;;;;5051629;28;20450;-73
2022/03/04 00:26:36;;;;;;;41.20;29.37;;;4.30;99.90;;;;;;5051597;28;20470;-74
2022/03/04 00:29:04;;;;;;;38.97;27.10;;;4.30;99.90;;;;;;5051633;28;20450;-74
2022/03/04 00:31:31;;;;;;;49.37;30.10;;;4.30;99.90;;;;;;5050991;28;20468;-74
2022/03/04 00:33:58;;;;;;;43.40;28.73;;;4.40;99.90;;;;;;5051329;28;20454;-74
2022/03/04 00:36:26;;;;;;;41.67;31.03;;;4.40;99.90;;;;;;5050990;28;20497;-73
2022/03/04 00:38:54;;;;;;;50.10;31.00;;;4.30;99.90;;;;;;5051255;28;20458;-73
2022/03/04 00:41:23;;;;;;;46.73;30.03;;;4.10;99.90;;;;;;5051225;28;20864;-73
2022/03/04 00:43:52;;;;;;;43.23;27.27;;;4.30;99.90;;;;;;5050759;28;20465;-73
2022/03/04 00:46:20;;;;;;;40.63;27.47;;;4.20;99.90;;;;;;5050870;28;20981;-73
2022/03/04 00:48:47;;;;;;;42.93;28.50;;;4.10;99.90;;;;;;5050979;28;20458;-74
2022/03/04 00:51:15;;;;;;;40.40;26.87;;;4.00;99.90;;;;;;5051051;28;20450;-73
2022/03/04 00:53:43;;;;;;;34.07;25.87;;;4.00;99.90;;;;;;5050927;28;20465;-73
2022/03/04 00:56:12;;;;;;;41.00;27.10;;;4.10;99.90;;;;;;5050920;28;20482;-73
2022/03/04 00:58:40;;;;;;;40.33;25.83;;;4.00;99.90;;;;;;5050575;28;20468;-74
2022/03/04 01:01:09;;;;;;;37.77;25.30;;;4.10;99.90;;;;;;5050692;28;20454;-73
2022/03/04 01:03:36;;;;;;;34.13;25.87;;;4.10;99.90;;;;;;5051184;28;20893;-74
2022/03/04 01:06:06;;;;;;;47.30;32.30;;;4.10;99.90;;;;;;5051280;28;20470;-74
2022/03/04 01:08:34;;;;;;;53.50;34.17;;;3.80;99.90;;;;;;5051512;28;20454;-74
2022/03/04 01:11:01;;;;;;;43.90;30.87;;;4.00;99.90;;;;;;5051085;28;20449;-73
2022/03/04 01:13:29;;;;;;;53.87;34.23;;;4.00;99.90;;;;;;5050915;28;20540;-73
2022/03/04 01:15:56;;;;;;;50.80;33.40;;;4.20;99.90;;;;;;5050872;28;20465;-73
2022/03/04 01:18:24;;;;;;;50.90;36.33;;;4.30;99.90;;;;;;5050879;28;20468;-74
2022/03/04 01:20:52;;;;;;;63.23;39.20;;;4.40;99.90;;;;;;5051251;28;20461;-74
2022/03/04 01:23:19;;;;;;;64.67;43.20;;;4.30;99.90;;;;;;5051092;28;20489;-73
2022/03/04 01:25:46;;;;;;;65.10;45.90;;;4.10;99.90;;;;;;5050857;28;20500;-74
2022/03/04 01:28:14;;;;;;;71.47;45.03;;;4.20;99.90;;;;;;5050714;28;20458;-74
2022/03/04 01:30:41;;;;;;;65.13;46.07;;;4.40;99.90;;;;;;5050890;28;20939;-73
2022/03/04 01:33:09;;;;;;;71.17;47.27;;;4.40;99.90;;;;;;5050536;28;20574;-73
2022/03/04 01:35:37;;;;;;;63.00;41.37;;;4.50;99.90;;;;;;5051098;28;20461;-73
2022/03/04 01:38:04;;;;;;;52.47;34.70;;;4.40;99.90;;;;;;5050979;28;20480;-73
2022/03/04 01:40:32;;;;;;;55.23;36.93;;;4.30;99.90;;;;;;5050543;28;20446;-73
2022/03/04 01:43:00;;;;;;;52.13;31.70;;;4.30;99.90;;;;;;5050417;28;20490;-73
2022/03/04 01:45:27;;;;;;;38.40;28.60;;;4.20;99.90;;;;;;5050553;28;20438;-74
2022/03/04 01:47:55;;;;;;;34.13;25.87;;;4.20;99.90;;;;;;5050439;28;20458;-75
2022/03/04 01:50:23;;;;;;;33.23;25.30;;;4.10;99.90;;;;;;5050875;28;20456;-74
2022/03/04 01:52:52;;;;;;;44.70;27.57;;;4.00;99.90;;;;;;5050082;28;20454;-73
2022/03/04 01:55:19;;;;;;;41.20;27.87;;;4.10;99.90;;;;;;5050405;28;20563;-74
2022/03/04 01:57:47;;;;;;;38.87;26.80;;;4.20;99.90;;;;;;5050113;28;20438;-73
2022/03/04 02:00:16;;;;;;;39.37;26.97;;;4.00;99.90;;;;;;5050607;28;20457;-73
2022/03/04 02:02:45;;;;;;;35.03;24.00;;;4.10;99.90;;;;;;5050530;28;20547;-75
2022/03/04 02:05:13;;;;;;;37.03;23.73;;;4.20;99.90;;;;;;5050426;28;20461;-74
2022/03/04 02:07:41;;;;;;;42.23;25.73;;;4.30;99.90;;;;;;5050163;28;20818;-74
2022/03/04 02:10:10;;;;;;;38.80;26.67;;;4.40;99.90;;;;;;5050157;28;20446;-73
2022/03/04 02:12:38;;;;;;;33.30;24.50;;;4.20;99.90;;;;;;5050428;28;20955;-73
2022/03/04 02:15:07;;;;;;;35.93;24.53;;;4.10;99.90;;;;;;5050543;28;20458;-75
2022/03/04 02:17:34;;;;;;;40.07;25.73;;;4.10;99.90;;;;;;5049897;28;20474;-72
2022/03/04 02:20:03;;;;;;;36.30;27.13;;;4.10;99.90;;;;;;5050057;28;20484;-73
2022/03/04 02:22:32;;;;;;;37.67;25.30;;;4.20;99.90;;;;;;5049929;28;20490;-74
2022/03/04 02:25:00;;;;;;;36.70;24.50;;;4.30;99.90;;;;;;5050356;28;20461;-73
2022/03/04 02:27:27;;;;;;;37.30;24.40;;;4.40;99.90;;;;;;5050251;28;20914;-73
2022/03/04 02:29:55;;;;;;;42.80;28.00;;;4.40;99.90;;;;;;5049669;28;20483;-73
2022/03/04 02:32:22;;;;;;;55.00;34.20;;;4.40;99.90;;;;;;5049539;28;21012;-74
2022/03/04 02:34:49;;;;;;;50.03;32.83;;;4.40;99.90;;;;;;5050196;28;20461;-74
2022/03/04 02:37:16;;;;;;;46.13;31.67;;;4.20;99.90;;;;;;5049678;28;20478;-73
2022/03/04 02:39:45;;;;;;;45.57;30.83;;;4.20;99.90;;;;;;5051545;28;20464;-73
2022/03/04 02:42:12;;;;;;;46.23;33.60;;;4.30;99.90;;;;;;5053923;28;20580;-74
2022/03/04 02:44:39;;;;;;;52.93;33.90;;;4.20;99.90;;;;;;5054446;28;20449;-73
2022/03/04 02:47:06;;;;;;;47.77;32.30;;;4.10;99.90;;;;;;5053642;28;20484;-74
2022/03/04 02:49:33;;;;;;;48.03;33.53;;;4.00;99.90;;;;;;5053813;28;20454;-73
2022/03/04 02:52:00;;;;;;;44.63;29.90;;;3.90;99.90;;;;;;5053428;28;20929;-73
2022/03/04 02:54:27;;;;;;;53.70;30.67;;;4.00;99.90;;;;;;5053836;28;20453;-74
2022/03/04 02:56:56;;;;;;;49.07;30.30;;;4.00;99.90;;;;;;5054086;28;20473;-74
2022/03/04 02:59:23;;;;;;;48.07;31.70;;;4.00;99.90;;;;;;5053861;28;20450;-76
2022/03/04 03:01:50;;;;;;;51.30;32.87;;;4.10;99.90;;;;;;5053649;28;20902;-74
2022/03/04 03:04:18;;;;;;;43.10;32.17;;;4.20;99.90;;;;;;5053565;28;20465;-74
2022/03/04 03:06:45;;;;;;;41.10;28.47;;;4.10;99.90;;;;;;5053771;28;20478;-73
2022/03/04 03:09:12;;;;;;;55.53;35.23;;;4.00;99.90;;;;;;5053744;28;20454;-74
2022/03/04 03:11:40;;;;;;;58.80;35.93;;;3.80;99.90;;;;;;5053711;28;20461;-74
2022/03/04 03:14:08;;;;;;;49.43;32.37;;;3.90;99.90;;;;;;5054488;28;20464;-75
2022/03/04 03:16:35;;;;;;;55.97;36.07;;;4.10;99.90;;;;;;5053544;28;20478;-74
2022/03/04 03:19:02;;;;;;;52.83;34.90;;;4.10;99.90;;;;;;5053265;28;20449;-74
2022/03/04 03:21:29;;;;;;;58.33;37.37;;;4.20;99.90;;;;;;5053313;28;20930;-75
2022/03/04 03:23:56;;;;;;;52.23;35.63;;;4.10;99.90;;;;;;5053274;28;20486;-75
2022/03/04 03:26:24;;;;;;;52.73;33.80;;;3.90;99.90;;;;;;5053170;28;20485;-74
2022/03/04 03:28:51;;;;;;;53.93;33.70;;;4.00;99.90;;;;;;5053466;28;20449;-74
2022/03/04 03:31:19;;;;;;;54.07;34.03;;;4.10;99.90;;;;;;5053188;28;20464;-73
2022/03/04 03:33:47;;;;;;;48.60;31.77;;;4.10;99.90;;;;;;5051968;28;20450;-73
2022/03/04 03:36:14;;;;;;;54.03;32.30;;;4.20;99.90;;;;;;5051944;28;20466;-74
2022/03/04 03:38:41;;;;;;;42.70;31.60;;;4.20;99.90;;;;;;5052136;28;20454;-74
2022/03/04 03:41:09;;;;;;;47.67;32.40;;;4.10;99.90;;;;;;5051757;28;20450;-73
2022/03/04 03:43:36;;;;;;;42.97;29.07;;;4.10;99.90;;;;;;5051748;28;20492;-73
2022/03/04 03:46:03;;;;;;;37.53;26.87;;;3.90;99.90;;;;;;5051517;28;20469;-74
2022/03/04 03:48:32;;;;;;;37.20;27.03;;;3.90;99.90;;;;;;5051656;28;20453;-75
2022/03/04 03:50:59;;;;;;;32.93;21.70;;;3.70;99.90;;;;;;5051714;28;21023;-74
2022/03/04 03:53:26;;;;;;;34.67;22.67;;;3.70;99.90;;;;;;5051824;28;20460;-74
2022/03/04 03:55:53;;;;;;;30.87;20.63;;;3.60;99.90;;;;;;5051347;28;20480;-73
2022/03/04 03:58:20;;;;;;;30.20;20.10;;;3.50;99.90;;;;;;5051624;28;20480;-74
2022/03/04 04:00:47;;;;;;;33.27;23.63;;;3.50;99.90;;;;;;5051805;28;20469;-73
2022/03/04 04:03:14;;;;;;;29.00;20.50;;;3.50;99.90;;;;;;5051398;28;20496;-73
2022/03/04 04:05:43;;;;;;;31.63;20.07;;;3.50;99.90;;;;;;5051524;28;20480;-75
2022/03/04 04:08:10;;;;;;;28.63;20.63;;;3.50;99.90;;;;;;5051450;28;20535;-74
2022/03/04 04:10:37;;;;;;;36.30;22.17;;;3.50;99.90;;;;;;5051376;28;20809;-73
2022/03/04 04:13:04;;;;;;;30.33;21.67;;;3.50;99.90;;;;;;5051461;28;20449;-73
2022/03/04 04:15:31;;;;;;;28.13;20.67;;;3.60;99.90;;;;;;5051049;28;20450;-74
2022/03/04 04:17:59;;;;;;;39.40;23.60;;;3.60;99.90;;;;;;5051338;28;20461;-74
2022/03/04 04:20:26;;;;;;;42.47;27.07;;;3.50;99.90;;;;;;5051499;28;20465;-74
2022/03/04 04:22:54;;;;;;;54.83;34.77;;;3.00;99.90;;;;;;5051178;28;20901;-74
2022/03/04 04:25:24;;;;;;;56.13;34.40;;;3.00;99.90;;;;;;5051112;28;20464;-74
2022/03/04 04:27:51;;;;;;;51.97;35.40;;;2.80;99.90;;;;;;5050964;28;20899;-73
2022/03/04 04:30:18;;;;;;;47.97;33.70;;;2.60;99.90;;;;;;5051113;28;20461;-73
2022/03/04 04:33:59;;;;;;;55.57;37.83;;;3.00;99.90;;;;;;5087085;27;20571;-73
2022/03/04 04:36:27;;;;;;;58.87;36.03;;;3.00;99.90;;;;;;5087769;28;20538;-73
2022/03/04 04:38:54;;;;;;;54.63;36.90;;;3.20;99.90;;;;;;5088001;28;20459;-75
2022/03/04 04:41:21;;;;;;;58.70;33.80;;;3.00;99.90;;;;;;5087862;28;20440;-76
2022/03/04 04:43:48;;;;;;;49.10;34.33;;;2.70;99.90;;;;;;5087592;28;20444;-76
2022/03/04 04:46:16;;;;;;;48.33;32.23;;;2.80;99.90;;;;;;5087542;28;20475;-72
2022/03/04 04:48:43;;;;;;;53.87;34.00;;;2.70;99.90;;;;;;5087595;28;20456;-74
2022/03/04 04:51:11;;;;;;;45.67;33.23;;;2.80;99.90;;;;;;5087624;28;20448;-73
2022/03/04 04:53:39;;;;;;;42.80;32.63;;;2.70;99.90;;;;;;5087729;28;20492;-74
2022/03/04 04:56:06;;;;;;;42.33;29.07;;;2.50;99.90;;;;;;5087538;28;20475;-74
2022/03/04 04:58:34;;;;;;;50.57;31.57;;;2.70;99.90;;;;;;5086810;28;20455;-73
2022/03/04 05:01:01;;;;;;;43.10;30.70;;;2.70;99.90;;;;;;5086540;28;20452;-72
2022/03/04 05:03:28;;;;;;;50.40;31.03;;;2.90;99.90;;;;;;5086818;28;20436;-71
2022/03/04 05:05:56;;;;;;;46.13;31.13;;;2.70;99.90;;;;;;5086844;28;21006;-71
2022/03/04 05:08:26;;;;;;;43.97;33.00;;;2.60;99.90;;;;;;5086820;28;20803;-72
2022/03/04 05:10:54;;;;;;;50.30;35.80;;;2.80;99.90;;;;;;5086577;28;20460;-70
2022/03/04 05:13:21;;;;;;;49.33;33.47;;;3.10;99.90;;;;;;5086334;28;20550;-72
2022/03/04 05:15:48;;;;;;;49.90;35.77;;;3.30;99.90;;;;;;5086384;28;20468;-72
2022/03/04 05:18:15;;;;;;;48.73;31.77;;;3.10;99.90;;;;;;5086432;28;20459;-70
2022/03/04 05:20:43;;;;;;;46.93;34.47;;;2.90;99.90;;;;;;5086513;28;20821;-69
2022/03/04 05:23:10;;;;;;;51.77;33.63;;;2.90;99.90;;;;;;5086477;28;20583;-70
2022/03/04 05:25:39;;;;;;;51.63;37.10;;;2.70;99.90;;;;;;5086154;28;20936;-71
2022/03/04 05:28:07;;;;;;;49.60;32.80;;;3.00;99.90;;;;;;5086113;28;20459;-74
2022/03/04 05:30:35;;;;;;;48.03;34.57;;;3.10;99.90;;;;;;5086288;28;20456;-73
2022/03/04 05:33:02;;;;;;;47.50;33.57;;;3.20;99.90;;;;;;5085551;28;20545;-74
2022/03/04 05:35:29;;;;;;;52.67;34.37;;;3.20;99.90;;;;;;5086421;28;20460;-72
2022/03/04 05:37:56;;;;;;;51.30;33.77;;;3.40;99.90;;;;;;5086119;28;20456;-71
2022/03/04 05:40:23;;;;;;;56.40;39.30;;;3.60;99.90;;;;;;5086022;28;20475;-72
2022/03/04 05:42:51;;;;;;;57.27;36.50;;;3.70;99.90;;;;;;5085817;28;20944;-74
2022/03/04 05:45:19;;;;;;;52.40;33.97;;;3.60;99.90;;;;;;5072522;28;20472;-71
2022/03/04 05:47:46;;;;;;;67.53;41.43;;;3.70;99.90;;;;;;5072657;28;20440;-74
2022/03/04 05:50:13;;;;;;;60.33;40.87;;;3.80;99.90;;;;;;5072276;28;20453;-69
2022/03/04 05:52:40;;;;;;;53.67;37.20;;;3.90;99.90;;;;;;5072463;28;20492;-72
2022/03/04 05:55:08;;;;;;;64.70;43.37;;;3.90;99.90;;;;;;5072241;28;20488;-73
2022/03/04 05:57:36;;;;;;;54.20;37.47;;;3.90;99.90;;;;;;5071985;28;20591;-73
2022/03/04 06:00:06;;;;;;;54.13;38.67;;;4.00;99.90;;;;;;5072359;28;20456;-74
2022/03/04 06:02:33;;;;;;;52.40;36.30;;;4.00;99.90;;;;;;5072258;28;20865;-72
2022/03/04 06:05:00;;;;;;;54.40;39.43;;;3.90;99.90;;;;;;5072231;28;20460;-71
2022/03/04 06:07:33;;;;;;;54.80;34.43;;;3.90;99.90;;;;;;5071888;28;20481;-70
2022/03/04 06:10:00;;;;;;;47.53;35.13;;;4.00;99.90;;;;;;5071927;28;20926;-72
2022/03/04 06:12:27;;;;;;;51.10;30.17;;;3.90;99.90;;;;;;5071871;28;20842;-71
2022/03/04 06:14:55;;;;;;;48.43;30.40;;;3.90;99.90;;;;;;5071980;28;20457;-70
2022/03/04 06:17:23;;;;;;;40.03;27.97;;;4.10;99.90;;;;;;5071248;28;20473;-71
2022/03/04 06:19:50;;;;;;;42.10;28.90;;;4.10;99.90;;;;;;5071537;28;20445;-72
2022/03/04 06:22:18;;;;;;;45.30;31.33;;;4.10;99.90;;;;;;5071557;28;20937;-74
2022/03/04 06:24:46;;;;;;;43.13;31.60;;;4.30;99.90;;;;;;5071758;28;20457;-71
2022/03/04 06:27:13;;;;;;;46.50;33.90;;;4.40;99.90;;;;;;5071577;28;20964;-72
2022/03/04 06:29:40;;;;;;;48.53;33.90;;;4.30;99.90;;;;;;5071727;28;20445;-73
2022/03/04 06:32:09;;;;;;;49.03;32.13;;;4.50;99.90;;;;;;5071156;28;20488;-71
2022/03/04 06:34:37;;;;;;;53.37;34.27;;;4.30;99.90;;;;;;5071539;28;20460;-70
2022/03/04 06:37:04;;;;;;;43.33;30.77;;;4.20;99.90;;;;;;5070992;28;20485;-70
2022/03/04 06:39:32;;;;;;;46.73;33.17;;;4.60;99.90;;;;;;5071280;28;20536;-73
2022/03/04 06:41:59;;;;;;;47.30;30.83;;;4.80;99.90;;;;;;5071363;28;20453;-73
2022/03/04 06:44:26;;;;;;;37.73;29.50;;;4.60;99.90;;;;;;5070807;28;20453;-70
2022/03/04 06:46:53;;;;;;;43.00;28.70;;;4.60;99.90;;;;;;5070961;28;20500;-71
2022/03/04 06:49:20;;;;;;;42.73;31.10;;;4.80;99.90;;;;;;5071166;28;20449;-74
2022/03/04 06:51:49;;;;;;;41.30;29.80;;;4.30;99.90;;;;;;5069748;28;20453;-72
2022/03/04 06:54:16;;;;;;;42.40;28.73;;;4.40;99.90;;;;;;5070913;28;20860;-72
2022/03/04 06:56:43;;;;;;;36.23;29.00;;;4.60;99.90;;;;;;5069547;28;21003;-72
2022/03/04 06:59:10;;;;;;;43.37;29.10;;;4.50;99.90;;;;;;5070905;28;20449;-75
2022/03/04 07:01:37;;;;;;;44.80;30.20;;;4.00;99.90;;;;;;5070834;28;20442;-72
2022/03/04 07:04:05;;;;;;;38.30;28.30;;;4.20;99.90;;;;;;5070461;28;20525;-74
2022/03/04 07:06:32;;;;;;;42.63;29.97;;;4.50;99.90;;;;;;5070756;28;20822;-72
2022/03/04 07:09:00;;;;;;;46.90;30.60;;;4.70;99.90;;;;;;5070754;28;20480;-70
2022/03/04 07:11:27;;;;;;;41.00;27.97;;;4.80;99.90;;;;;;5070304;28;20946;-74
2022/03/04 07:13:55;;;;;;;36.00;26.60;;;5.00;99.90;;;;;;5070598;28;20988;-74
2022/03/04 07:16:22;;;;;;;32.10;25.07;;;4.70;99.90;;;;;;5070350;28;20473;-73
2022/03/04 07:18:49;;;;;;;34.07;23.57;;;5.00;99.90;;;;;;5070535;28;20456;-74
2022/03/04 07:21:16;;;;;;;37.97;26.17;;;5.10;99.90;;;;;;5070001;28;20948;-72
2022/03/04 07:23:43;;;;;;;39.97;27.77;;;5.20;99.90;;;;;;5070347;28;20826;-75
2022/03/04 07:26:12;;;;;;;34.60;26.10;;;5.20;99.90;;;;;;5069822;28;20975;-71
2022/03/04 07:28:39;;;;;;;41.40;28.67;;;5.40;99.90;;;;;;5070249;28;20457;-72
2022/03/04 07:31:06;;;;;;;38.90;27.90;;;5.50;99.90;;;;;;5070120;28;20457;-74
2022/03/04 07:33:36;;;;;;;35.93;27.50;;;5.70;99.90;;;;;;5069833;28;20497;-70
2022/03/04 07:36:04;;;;;;;40.90;29.50;;;5.90;99.90;;;;;;5070061;28;20477;-74
2022/03/04 07:38:31;;;;;;;43.23;33.67;;;5.90;99.90;;;;;;5070232;28;20932;-74
2022/03/04 07:40:59;;;;;;;41.80;32.70;;;5.90;99.90;;;;;;5070173;28;20933;-74
2022/03/04 07:43:27;;;;;;;50.03;33.97;;;5.60;99.90;;;;;;5070094;28;20514;-73
2022/03/04 07:45:54;;;;;;;44.53;33.60;;;5.80;99.90;;;;;;5069709;28;20469;-73
2022/03/04 07:48:21;;;;;;;52.70;34.70;;;5.80;99.90;;;;;;5069984;28;20449;-71
2022/03/04 07:50:48;;;;;;;41.43;32.60;;;6.00;99.90;;;;;;5070015;28;20460;-73
2022/03/04 07:53:16;;;;;;;51.30;32.47;;;6.10;99.90;;;;;;5070010;28;20841;-73
2022/03/04 07:55:43;;;;;;;51.13;33.67;;;6.20;99.90;;;;;;5069599;28;20480;-72
2022/03/04 07:58:11;;;;;;;51.20;32.93;;;6.00;99.90;;;;;;5069866;28;20512;-73
2022/03/04 08:00:39;;;;;;;42.47;31.17;;;5.90;99.90;;;;;;5070058;28;20778;-74
2022/03/04 08:03:06;;;;;;;46.10;32.23;;;5.90;99.90;;;;;;5070037;28;20556;-73
2022/03/04 08:05:35;;;;;;;43.63;31.07;;;5.90;99.90;;;;;;5069732;28;20468;-74
2022/03/04 08:08:02;;;;;;;43.07;30.00;;;5.80;99.90;;;;;;5069638;28;20488;-74
2022/03/04 08:10:30;;;;;;;42.60;29.40;;;5.90;99.90;;;;;;5069457;28;20827;-74
2022/03/04 08:12:57;;;;;;;40.20;29.47;;;6.10;99.90;;;;;;5069568;28;20484;-72
2022/03/04 08:15:24;;;;;;;41.20;29.60;;;6.30;99.90;;;;;;5069437;28;20444;-73
2022/03/04 08:17:53;;;;;;;47.00;28.90;;;6.50;99.90;;;;;;5069705;28;20456;-70
2022/03/04 08:20:21;;;;;;;43.87;29.10;;;6.70;99.90;;;;;;5069682;28;20445;-74
2022/03/04 08:22:48;;;;;;;44.30;32.00;;;6.60;99.90;;;;;;5069258;28;20937;-74
2022/03/04 08:25:16;;;;;;;39.93;29.10;;;6.80;99.90;;;;;;5069151;28;20531;-73
2022/03/04 08:27:43;;;;;;;40.60;29.00;;;6.90;99.50;;;;;;5069781;28;20485;-73
2022/03/04 08:30:14;;;;;;;37.07;28.30;;;7.00;99.10;;;;;;5070189;28;20456;-74
2022/03/04 08:32:42;;;;;;;36.77;27.13;;;7.00;98.70;;;;;;5069668;28;20516;-71
2022/03/04 08:35:11;;;;;;;39.50;29.27;;;7.20;98.30;;;;;;5068963;28;20484;-74
2022/03/04 08:37:38;;;;;;;36.77;28.03;;;7.40;97.80;;;;;;5069889;28;20844;-76
2022/03/04 08:40:08;;;;;;;43.40;28.33;;;7.40;97.60;;;;;;5069508;28;20449;-73
2022/03/04 08:42:35;;;;;;;36.17;28.00;;;7.50;97.00;;;;;;5069366;28;20464;-71
2022/03/04 08:45:03;;;;;;;35.83;26.03;;;7.50;96.70;;;;;;5069361;28;20449;-72
2022/03/04 08:47:30;;;;;;;37.90;28.67;;;7.50;95.90;;;;;;5069244;28;20473;-70
2022/03/04 08:49:57;;;;;;;51.87;28.70;;;7.60;95.50;;;;;;5062275;28;20480;-74
2022/03/04 08:52:26;;;;;;;35.10;25.93;;;7.90;94.50;;;;;;5048344;28;20458;-72
2022/03/04 08:54:53;;;;;;;35.40;25.10;;;8.20;93.40;;;;;;5048761;28;20492;-71
2022/03/04 08:57:20;;;;;;;34.03;27.20;;;8.10;92.70;;;;;;5048753;28;20473;-71
2022/03/04 08:59:47;;;;;;;41.27;27.30;;;8.00;93.00;;;;;;5049075;28;20462;-70
2022/03/04 09:02:14;;;;;;;36.87;24.73;;;8.20;93.60;;;;;;5049004;28;20961;-71
2022/03/04 09:04:41;;;;;;;35.37;26.17;;;8.20;93.30;;;;;;5048810;28;20461;-79
2022/03/04 09:07:08;;;;;;;39.33;28.90;;;8.10;92.50;;;;;;5048711;28;20485;-78
2022/03/04 09:09:38;;;;;;;47.23;32.27;;;8.30;92.20;;;;;;5049027;28;20450;-76
2022/03/04 09:12:07;;;;;;;49.23;32.80;;;8.60;92.00;;;;;;5049118;28;20454;-78
2022/03/04 09:14:34;;;;;;;50.47;34.47;;;8.80;92.00;;;;;;5048816;28;21014;-80
2022/03/04 09:17:01;;;;;;;45.03;32.37;;;9.00;91.40;;;;;;5048359;28;20492;-80
2022/03/04 09:19:30;;;;;;;54.37;35.33;;;9.20;90.80;;;;;;5050429;28;20462;-79
2022/03/04 09:21:57;;;;;;;46.30;32.97;;;9.40;90.00;;;;;;5052842;28;20469;-79
2022/03/04 09:24:24;;;;;;;42.57;33.10;;;9.60;87.20;;;;;;5052285;28;20453;-76
2022/03/04 09:26:53;;;;;;;45.53;32.37;;;9.60;86.20;;;;;;5052356;28;20477;-74
2022/03/04 09:29:20;;;;;;;42.47;30.80;;;9.60;87.40;;;;;;5052334;28;20809;-78
2022/03/04 09:31:47;;;;;;;37.73;30.17;;;9.80;88.10;;;;;;5051622;28;20469;-76
2022/03/04 09:34:14;;;;;;;36.70;30.60;;;10.10;85.30;;;;;;5052309;28;20489;-74
2022/03/04 09:36:41;;;;;;;40.47;30.17;;;10.30;81.00;;;;;;5052220;28;20504;-73
2022/03/04 09:39:10;;;;;;;39.57;29.03;;;10.10;80.80;;;;;;5052239;28;20456;-79
2022/03/04 09:41:39;;;;;;;45.17;31.10;;;9.90;81.90;;;;;;5052334;28;20922;-70
2022/03/04 09:44:11;;;;;;;40.27;31.23;;;9.80;83.40;;;;;;5051569;28;20588;-75
2022/03/04 09:46:40;;;;;;;41.40;32.27;;;10.00;81.50;;;;;;5051449;28;20557;-76
2022/03/04 09:49:08;;;;;;;44.40;31.70;;;9.90;82.80;;;;;;5051897;28;20961;-75
2022/03/04 09:51:36;;;;;;;40.73;30.60;;;10.20;82.10;;;;;;5051918;28;20449;-75
2022/03/04 09:54:03;;;;;;;40.00;31.70;;;10.60;78.30;;;;;;5052238;28;20501;-78
2022/03/04 09:56:30;;;;;;;39.97;29.17;;;10.50;78.90;;;;;;5052147;28;20474;-77
2022/03/04 09:58:57;;;;;;;37.03;28.87;;;10.80;78.30;;;;;;5051799;28;20445;-78
2022/03/04 10:01:26;;;;;;;40.83;29.03;;;11.10;76.30;;;;;;5051684;28;20445;-75
2022/03/04 10:03:55;;;;;;;42.70;31.33;;;11.40;76.40;;;;;;5051349;28;20450;-76
2022/03/04 10:06:23;;;;;;;40.27;29.27;;;11.80;72.90;;;;;;5051622;28;20482;-78
2022/03/04 10:08:52;;;;;;;37.80;31.53;;;12.10;71.30;;;;;;5051792;28;21045;-77
2022/03/04 10:11:28;;;;;;;34.50;29.10;;;12.10;68.70;;;;;;5051479;28;20445;-77
2022/03/04 10:13:56;;;;;;;41.20;29.57;;;12.20;68.90;;;;;;5051274;28;20485;-76
2022/03/04 10:16:26;;;;;;;39.67;29.67;;;12.50;69.70;;;;;;5050965;28;20482;-78
2022/03/04 10:19:13;;;;;;;42.30;32.20;;;12.60;69.60;;;;;;5051363;28;20476;-77
2022/03/04 10:21:48;;;;;;;36.90;27.53;;;12.80;66.90;;;;;;5051724;28;20865;-73
2022/03/04 10:24:15;;;;;;;36.40;28.73;;;12.80;66.60;;;;;;5051281;28;20453;-74
2022/03/04 10:26:42;;;;;;;36.00;29.17;;;12.90;64.60;;;;;;5050723;28;20471;-76
2022/03/04 10:29:21;;;;;;;36.03;28.07;;;12.90;64.20;;;;;;5051363;28;20450;-74
2022/03/04 10:32:11;;;;;;;38.63;28.57;;;13.20;63.70;;;;;;5050970;28;20462;-69
2022/03/04 10:34:48;;;;;;;32.90;25.83;;;13.40;62.40;;;;;;5052712;28;20970;-77
2022/03/04 10:37:17;;;;;;;39.83;30.00;;;13.50;60.40;;;;;;5051530;28;20557;-75
2022/03/04 10:40:02;;;;;;;44.23;30.87;;;13.70;60.60;;;;;;5051561;28;20477;-74
2022/03/04 10:42:41;;;;;;;41.23;29.37;;;13.90;60.50;;;;;;5050846;28;20540;-73
2022/03/04 10:45:09;;;;;;;37.80;28.40;;;14.00;59.40;;;;;;5050972;28;20532;-73
2022/03/04 10:47:49;;;;;;;41.33;28.67;;;14.20;59.70;;;;;;5050512;28;20485;-73
2022/03/04 10:50:18;;;;;;;37.83;28.20;;;14.20;58.70;;;;;;5050278;28;20933;-74
2022/03/04 10:52:53;;;;;;;36.23;30.07;;;14.30;58.10;;;;;;5050723;28;20891;-77
2022/03/04 10:55:39;;;;;;;36.23;28.47;;;14.30;57.90;;;;;;5050847;28;21001;-78
2022/03/04 10:58:12;;;;;;;35.30;27.17;;;14.50;57.20;;;;;;5050738;28;20460;-73
2022/03/04 11:00:39;;;;;;;32.30;25.80;;;14.60;57.30;;;;;;5050942;28;20961;-74
2022/03/04 11:03:08;;;;;;;32.60;25.50;;;14.60;56.00;;;;;;5050657;28;20525;-74
2022/03/04 11:05:36;;;;;;;28.93;22.30;;;14.70;57.10;;;;;;5050267;28;20508;-75
2022/03/04 11:08:03;;;;;;;28.67;21.07;;;14.80;55.20;;;;;;5050870;28;20481;-76
2022/03/04 11:10:30;;;;;;;27.97;21.40;;;14.30;53.00;;;;;;5050563;28;20910;-75
2022/03/04 11:12:57;;;;;;;26.37;21.97;;;14.00;54.80;;;;;;5050811;28;20511;-75
2022/03/04 11:15:25;;;;;;;23.83;19.90;;;14.10;54.60;;;;;;5050419;28;20496;-75
2022/03/04 11:17:54;;;;;;;24.87;19.23;;;14.20;55.20;;;;;;5050456;28;20481;-74
2022/03/04 11:20:22;;;;;;;29.13;19.73;;;14.30;54.50;;;;;;5050425;28;20481;-75
2022/03/04 11:22:51;;;;;;;26.90;20.57;;;14.50;54.20;;;;;;5050072;28;20454;-76
2022/03/04 11:25:23;;;;;;;26.13;19.67;;;14.30;52.50;;;;;;5050443;28;20450;-75
2022/03/04 11:27:51;;;;;;;30.83;19.07;;;13.90;53.00;;;;;;5050341;28;20943;-75
2022/03/04 11:30:32;;;;;;;23.33;17.67;;;13.70;53.40;;;;;;5049915;28;20454;-75
2022/03/04 11:33:01;;;;;;;19.63;16.57;;;13.60;53.00;;;;;;5049311;28;20492;-71
2022/03/04 11:36:05;;;;;;;23.00;17.70;;;13.60;53.40;;;;;;5049833;28;20597;-72
2022/03/04 11:39:09;;;;;;;22.23;17.43;;;13.50;53.90;;;;;;5050181;28;20841;-71
2022/03/04 11:42:06;;;;;;;22.00;17.27;;;13.70;54.10;;;;;;5049376;28;20450;-68
2022/03/04 11:44:34;;;;;;;22.77;16.53;;;13.90;53.00;;;;;;5044037;28;20508;-68
2022/03/04 11:47:02;;;;;;;22.27;17.20;;;14.00;54.30;;;;;;5049880;28;20478;-68
2022/03/04 11:49:35;;;;;;;20.80;17.17;;;14.10;53.80;;;;;;5049690;28;20458;-68
2022/03/04 11:52:29;;;;;;;23.40;19.80;;;14.40;54.50;;;;;;5049784;28;20450;-66
2022/03/04 11:55:22;;;;;;;25.63;19.27;;;14.80;52.20;;;;;;5048301;28;21007;-67
2022/03/04 11:57:59;;;;;;;27.10;18.20;;;14.60;51.50;;;;;;5049624;28;20583;-66
2022/03/04 12:00:29;;;;;;;21.43;15.20;;;14.70;52.10;;;;;;5049415;28;21020;-68
2022/03/04 12:02:57;;;;;;;20.87;15.83;;;14.90;52.20;;;;;;5049468;28;20458;-70
2022/03/04 12:05:30;;;;;;;25.30;15.70;;;15.40;51.40;;;;;;5049782;28;20453;-68
2022/03/04 12:08:13;;;;;;;19.40;13.80;;;15.80;51.90;;;;;;5049179;28;20449;-67
2022/03/04 12:10:53;;;;;;;15.43;11.60;;;16.20;50.30;;;;;;5049143;28;20454;-69
2022/03/04 12:13:23;;;;;;;15.13;10.80;;;16.10;49.10;;;;;;5049551;28;20957;-67
2022/03/04 12:15:53;;;;;;;14.60;10.73;;;16.30;49.30;;;;;;5049171;28;20512;-67
2022/03/04 12:18:27;;;;;;;16.70;10.37;;;16.30;48.80;;;;;;5049399;28;20480;-65
2022/03/04 12:21:13;;;;;;;13.03;9.60;;;16.40;49.30;;;;;;5049098;28;20462;-66
2022/03/04 12:23:51;;;;;;;12.50;9.50;;;16.60;48.90;;;;;;5049522;28;20494;-68
2022/03/04 12:26:24;;;;;;;16.23;9.40;;;16.50;47.60;;;;;;5049231;28;20466;-68
2022/03/04 12:28:53;;;;;;;11.70;7.73;;;16.20;47.60;;;;;;5048961;28;20476;-67
2022/03/04 12:31:24;;;;;;;12.60;7.93;;;15.70;47.60;;;;;;5048820;28;21003;-67
2022/03/04 12:33:57;;;;;;;14.10;8.00;;;14.90;48.20;;;;;;5048809;28;20539;-66
2022/03/04 12:36:26;;;;;;;10.47;6.80;;;14.80;47.80;;;;;;5048893;28;20493;-68
2022/03/04 12:38:57;;;;;;;11.53;7.17;;;14.60;47.80;;;;;;5049271;28;20461;-67
2022/03/04 12:41:26;;;;;;;10.47;7.27;;;14.40;48.20;;;;;;5048794;28;20454;-66
2022/03/04 12:43:54;;;;;;;10.80;7.80;;;14.30;48.70;;;;;;5049038;28;20454;-67
2022/03/04 12:46:23;;;;;;;11.93;7.70;;;14.10;49.60;;;;;;5049150;28;20473;-65